createdAt,value
2023-02-19T00:01:38.009Z,98032.92
2023-02-19T00:04:42.044Z,98035.92
2023-02-19T00:07:45.171Z,98035.76
2023-02-19T00:10:54.956Z,98029.52
2023-02-19T00:14:00.679Z,98031.27
2023-02-19T00:17:04.404Z,98027.46
2023-02-19T00:20:13.772Z,98022.71
2023-02-19T00:23:16.983Z,98025.16
2023-02-19T01:55:20.909Z,98070.67
2023-02-19T01:58:28.293Z,98077.96
2023-02-19T02:01:30.549Z,98077.44
2023-02-19T02:04:34.953Z,98083.11
2023-02-19T02:07:56.725Z,98076.02
2023-02-19T02:11:02.067Z,98086.48
2023-02-19T02:14:10.080Z,98090.69
2023-02-19T02:17:19.996Z,98089.88
2023-02-19T02:20:41.345Z,98093.93
2023-02-19T02:24:12.613Z,98095.52
2023-02-19T02:27:42.336Z,98107.61
2023-02-19T02:31:33.763Z,98113.98
2023-02-19T02:34:58.290Z,98113.89
2023-02-19T02:38:05.853Z,98108.61
2023-02-19T02:41:13.078Z,98114.02
2023-02-19T02:44:17.043Z,98106.55
2023-02-19T02:47:41.704Z,98108.03
2023-02-19T02:51:04.016Z,98112.56
2023-02-19T02:54:50.680Z,98124.62
2023-02-19T02:57:56.820Z,98136.04
2023-02-19T03:01:34.989Z,98141.85
2023-02-19T03:05:20.183Z,98141.38
2023-02-19T03:08:30.013Z,98155.91
2023-02-19T03:11:55.181Z,98146.06
2023-02-19T03:15:25.035Z,98150.55
2023-02-19T03:18:52.441Z,98151.30
2023-02-19T03:22:24.421Z,98154.60
2023-02-19T03:25:52.272Z,98159.06
2023-02-19T03:29:21.703Z,98159.39
2023-02-19T03:32:33.540Z,98154.92
2023-02-19T03:35:47.947Z,98158.17
2023-02-19T03:39:00.882Z,98165.98
2023-02-19T03:42:41.869Z,98174.31
2023-02-19T03:46:29.135Z,98176.02
2023-02-19T03:50:02.907Z,98186.30
2023-02-19T03:53:29.710Z,98192.08
2023-02-19T03:56:48.540Z,98196.23
2023-02-19T04:00:32.001Z,98189.46
2023-02-19T04:03:42.737Z,98181.77
2023-02-19T04:06:53.814Z,98182.16
2023-02-19T04:09:56.583Z,98186.66
2023-02-19T04:13:09.491Z,98178.95
2023-02-19T04:16:20.276Z,98173.06
2023-02-19T04:19:31.154Z,98176.90
2023-02-19T04:22:37.498Z,98188.77
2023-02-19T04:25:45.236Z,98199.23
2023-02-19T04:28:49.312Z,98199.18
2023-02-19T04:31:51.679Z,98193.31
2023-02-19T04:34:55.146Z,98206.01
2023-02-19T04:37:58.944Z,98214.87
2023-02-19T04:41:04.169Z,98219.05
2023-02-19T04:44:07.280Z,98226.06
2023-02-19T04:47:10.148Z,98222.64
2023-02-19T04:50:14.371Z,98225.33
2023-02-19T04:53:18.074Z,98228.83
2023-02-19T04:56:23.598Z,98228.97
2023-02-19T04:59:26.079Z,98234.79
2023-02-19T05:02:30.394Z,98243.40
2023-02-19T05:05:33.957Z,98252.87
2023-02-19T05:08:41.381Z,98255.52
2023-02-19T05:11:43.554Z,98251.70
2023-02-19T05:14:46.557Z,98258.60
2023-02-19T05:17:50.246Z,98257.23
2023-02-19T05:20:52.740Z,98259.42
2023-02-19T05:23:55.431Z,98250.45
2023-02-19T05:26:59.670Z,98251.14
2023-02-19T05:30:04.156Z,98257.58
2023-02-19T05:33:07.204Z,98258.14
2023-02-19T05:36:12.624Z,98263.23
2023-02-19T05:39:16.613Z,98264.08
2023-02-19T05:42:21.344Z,98268.17
2023-02-19T05:45:29.648Z,98274.29
2023-02-19T05:48:32.297Z,98278.77
2023-02-19T05:51:37.588Z,98286.25
2023-02-19T05:54:40.661Z,98287.73
2023-02-19T05:57:45.672Z,98289.69
2023-02-19T06:00:50.366Z,98286.21
2023-02-19T06:03:55.464Z,98287.95
2023-02-19T06:06:59.228Z,98300.45
2023-02-19T06:10:06.669Z,98300.77
2023-02-19T06:13:14.247Z,98298.83
2023-02-19T06:16:23.600Z,98290.39
2023-02-19T06:31:24.674Z,98298.48
2023-02-19T06:34:32.957Z,98293.42
2023-02-19T06:37:35.246Z,98296.38
2023-02-19T06:40:41.694Z,98298.92
2023-02-19T06:43:46.072Z,98300.42
2023-02-19T06:46:56.162Z,98305.77
2023-02-19T06:50:01.589Z,98306.92
2023-02-19T06:53:04.045Z,98309.25
2023-02-19T06:56:27.164Z,98308.31
2023-02-19T06:59:29.769Z,98302.46
2023-02-19T07:02:32.566Z,98313.97
2023-02-19T07:05:44.153Z,98299.58
2023-02-19T07:08:49.015Z,98306.84
2023-02-19T07:11:52.603Z,98309.35
2023-02-19T07:14:57.996Z,98305.95
2023-02-19T07:18:06.644Z,98300.41
2023-02-19T07:21:12.774Z,98314.17
2023-02-19T07:24:17.411Z,98298.95
2023-02-19T07:27:20.618Z,98299.11
2023-02-19T07:30:26.166Z,98295.60
2023-02-19T07:33:28.374Z,98294.63
2023-02-19T07:36:31.456Z,98305.02
2023-02-19T07:39:35.181Z,98313.50
2023-02-19T07:42:38.485Z,98316.14
2023-02-19T07:46:21.285Z,98316.46
2023-02-19T07:49:28.446Z,98343.72
2023-02-19T07:52:35.026Z,98337.30
2023-02-19T07:55:37.014Z,98336.27
2023-02-19T07:58:42.999Z,98349.19
2023-02-19T08:02:04.494Z,98347.23
2023-02-19T08:05:10.527Z,98328.93
2023-02-19T08:08:15.577Z,98335.96
2023-02-19T08:11:41.500Z,98338.52
2023-02-19T08:14:46.375Z,98341.86
2023-02-19T08:17:53.536Z,98337.87
2023-02-19T08:21:02.453Z,98362.42
2023-02-19T08:24:08.450Z,98362.89
2023-02-19T08:27:15.896Z,98362.95
2023-02-19T08:30:19.149Z,98390.91
2023-02-19T08:33:24.201Z,98360.45
2023-02-19T08:36:31.011Z,98383.27
2023-02-19T08:39:36.448Z,98364.05
2023-02-19T08:42:40.164Z,98359.64
2023-02-19T08:45:47.603Z,98348.85
2023-02-19T08:48:55.007Z,98348.95
2023-02-19T08:51:58.147Z,98349.03
2023-02-19T08:55:05.827Z,98357.49
2023-02-19T08:58:12.936Z,98360.49
2023-02-19T09:01:19.433Z,98351.40
2023-02-19T09:04:28.346Z,98342.48
2023-02-19T09:07:31.737Z,98321.64
2023-02-19T09:10:35.349Z,98335.31
2023-02-19T09:13:44.796Z,98323.61
2023-02-19T09:16:49.886Z,98325.62
2023-02-19T09:19:55.030Z,98333.34
2023-02-19T09:22:58.982Z,98338.17
2023-02-19T09:26:08.849Z,98318.23
2023-02-19T09:29:12.744Z,98328.17
2023-02-19T09:32:19.148Z,98343.29
2023-02-19T09:35:24.046Z,98333.28
2023-02-19T09:38:31.387Z,98354.84
2023-02-19T09:41:44.708Z,98362.11
2023-02-19T09:44:52.562Z,98338.48
2023-02-19T09:47:58.286Z,98339.60
2023-02-19T09:51:03.007Z,98339.16
2023-02-19T09:54:07.591Z,98327.80
2023-02-19T09:57:21.219Z,98327.08
2023-02-19T10:00:26.151Z,98308.11
2023-02-19T10:03:35.488Z,98298.45
2023-02-19T10:18:55.394Z,98267.52
2023-02-19T10:22:05.232Z,98283.91
2023-02-19T10:25:19.679Z,98267.63
2023-02-19T10:28:29.686Z,98281.65
2023-02-19T10:31:39.561Z,98258.86
2023-02-19T10:34:43.241Z,98264.04
2023-02-19T10:37:50.505Z,98264.61
2023-02-19T10:40:59.198Z,98253.24
2023-02-19T10:44:13.779Z,98237.12
2023-02-19T10:47:22.436Z,98230.04
2023-02-19T10:50:38.779Z,98218.73
2023-02-19T10:53:44.746Z,98216.00
2023-02-19T10:56:47.691Z,98214.25
2023-02-19T11:00:26.311Z,98212.02
2023-02-19T11:03:30.948Z,98199.91
2023-02-19T11:06:35.115Z,98181.75
2023-02-19T11:09:46.453Z,98186.68
2023-02-19T11:12:53.023Z,98189.50
2023-02-19T11:15:57.180Z,98175.05
2023-02-19T11:19:00.429Z,98184.26
2023-02-19T11:22:27.141Z,98167.98
2023-02-19T11:25:30.582Z,98167.27
2023-02-19T11:28:40.329Z,98169.53
2023-02-19T11:31:45.955Z,98165.45
2023-02-19T11:34:49.187Z,98164.64
2023-02-19T11:38:00.713Z,98166.04
2023-02-19T11:41:39.587Z,98163.56
2023-02-19T11:45:13.416Z,98160.71
2023-02-19T11:48:20.668Z,98168.64
2023-02-19T11:51:41.953Z,98182.43
2023-02-19T11:55:00.523Z,98173.14
2023-02-19T11:58:24.814Z,98173.31
2023-02-19T12:01:54.809Z,98173.12
2023-02-19T12:05:01.182Z,98181.20
2023-02-19T12:08:42.952Z,98191.80
2023-02-19T12:12:25.078Z,98176.45
2023-02-19T12:15:35.659Z,98196.56
2023-02-19T12:18:42.946Z,98205.48
2023-02-19T12:22:15.423Z,98177.07
2023-02-19T12:25:48.005Z,98170.81
2023-02-19T12:29:04.140Z,98185.34
2023-02-19T12:32:35.650Z,98187.50
2023-02-19T12:36:18.021Z,98168.29
2023-02-19T12:39:37.710Z,98174.50
2023-02-19T12:43:10.349Z,98181.09
2023-02-19T12:46:30.558Z,98180.83
2023-02-19T12:49:57.143Z,98194.16
2023-02-19T12:53:28.924Z,98192.10
2023-02-19T12:57:07.792Z,98182.98
2023-02-19T13:00:35.430Z,98183.05
2023-02-19T13:03:45.587Z,98196.52
2023-02-19T13:07:21.922Z,98185.43
2023-02-19T13:10:46.359Z,98192.56
2023-02-19T13:13:59.785Z,98185.16
2023-02-19T13:17:20.986Z,98180.48
2023-02-19T13:21:00.763Z,98185.52
2023-02-19T13:24:35.828Z,98180.27
2023-02-19T13:27:57.272Z,98177.80
2023-02-19T13:31:12.677Z,98174.32
2023-02-19T13:34:51.270Z,98174.30
2023-02-19T13:41:29.118Z,98172.39
2023-02-19T13:44:34.204Z,98171.56
2023-02-19T13:48:27.026Z,98165.02
2023-02-19T13:51:29.441Z,98171.76
2023-02-19T13:54:40.093Z,98166.66
2023-02-19T13:57:47.063Z,98164.57
2023-02-19T14:01:11.169Z,98168.05
2023-02-19T14:04:44.024Z,98161.50
2023-02-19T14:07:53.583Z,98166.83
2023-02-19T14:11:04.498Z,98167.08
2023-02-19T14:14:27.684Z,98170.04
2023-02-19T14:17:50.314Z,98177.89
2023-02-19T14:21:27.762Z,98168.12
2023-02-19T14:24:34.070Z,98163.39
2023-02-19T14:27:37.938Z,98173.11
2023-02-19T14:30:56.407Z,98167.03
2023-02-19T14:34:03.104Z,98168.42
2023-02-19T14:37:19.322Z,98166.34
2023-02-19T14:40:48.562Z,98161.29
2023-02-19T14:43:56.009Z,98162.60
2023-02-19T14:47:15.210Z,98165.16
2023-02-19T14:50:27.981Z,98165.88
2023-02-19T14:53:34.989Z,98162.09
2023-02-19T14:56:40.937Z,98170.02
2023-02-19T14:59:58.827Z,98165.09
2023-02-19T15:03:02.985Z,98165.52
2023-02-19T15:06:12.666Z,98172.73
2023-02-19T15:09:19.048Z,98173.40
2023-02-19T15:13:02.756Z,98174.66
2023-02-19T15:16:10.369Z,98179.29
2023-02-19T15:19:16.326Z,98182.27
2023-02-19T15:22:24.843Z,98187.58
2023-02-19T15:25:38.130Z,98186.58
2023-02-19T15:28:45.335Z,98191.20
2023-02-19T15:32:18.390Z,98199.04
2023-02-19T15:35:29.286Z,98196.20
2023-02-19T15:38:33.438Z,98199.27
2023-02-19T15:41:38.332Z,98202.14
2023-02-19T15:45:20.485Z,98206.77
2023-02-19T15:48:39.884Z,98208.10
2023-02-19T15:51:54.928Z,98209.31
2023-02-19T15:55:19.390Z,98217.36
2023-02-19T15:59:04.844Z,98212.85
2023-02-19T16:02:17.105Z,98213.86
2023-02-19T16:05:27.290Z,98214.15
2023-02-19T16:08:39.837Z,98222.38
2023-02-19T16:11:55.820Z,98231.42
2023-02-19T16:15:02.432Z,98230.59
2023-02-19T16:18:05.584Z,98232.50
2023-02-19T16:21:12.274Z,98231.65
2023-02-19T16:24:26.919Z,98226.71
2023-02-19T16:27:42.206Z,98231.71
2023-02-19T16:30:44.256Z,98232.00
2023-02-19T16:34:31.810Z,98225.50
2023-02-19T16:37:59.407Z,98230.34
2023-02-19T16:41:24.019Z,98235.23
2023-02-19T16:44:43.770Z,98234.11
2023-02-19T16:51:41.614Z,98233.46
2023-02-19T16:54:44.396Z,98232.40
2023-02-19T16:57:55.744Z,98236.63
2023-02-19T17:01:55.578Z,98236.42
2023-02-19T17:05:02.219Z,98231.89
2023-02-19T17:08:46.100Z,98233.61
2023-02-19T17:11:54.507Z,98236.74
2023-02-19T17:15:01.921Z,98235.55
2023-02-19T17:18:12.643Z,98234.08
2023-02-19T17:21:27.131Z,98220.20
2023-02-19T17:24:29.686Z,98225.42
2023-02-19T17:27:38.992Z,98229.36
2023-02-19T17:30:43.472Z,98227.78
2023-02-19T17:33:48.982Z,98230.77
2023-02-19T17:37:06.320Z,98233.65
2023-02-19T17:40:34.041Z,98229.15
2023-02-19T17:43:41.768Z,98231.28
2023-02-19T17:46:51.208Z,98231.14
2023-02-19T17:49:57.307Z,98235.98
2023-02-19T17:53:11.743Z,98233.38
2023-02-19T17:56:25.933Z,98242.04
2023-02-19T17:59:38.105Z,98241.89
2023-02-19T18:02:48.942Z,98241.63
2023-02-19T18:05:56.169Z,98235.58
2023-02-19T18:09:03.689Z,98234.13
2023-02-19T18:12:14.124Z,98241.44
2023-02-19T18:15:34.773Z,98244.98
2023-02-19T18:19:02.917Z,98251.63
2023-02-19T18:22:17.686Z,98258.10
2023-02-19T18:25:24.687Z,98263.95
2023-02-19T18:28:31.772Z,98270.10
2023-02-19T18:31:37.708Z,98282.86
2023-02-19T18:34:42.860Z,98281.90
2023-02-19T18:37:49.525Z,98283.61
2023-02-19T18:41:00.394Z,98290.52
2023-02-19T18:44:04.825Z,98293.02
2023-02-19T18:47:13.153Z,98284.38
2023-02-19T18:50:19.378Z,98290.44
2023-02-19T18:53:24.142Z,98296.92
2023-02-19T18:59:48.659Z,98291.45
2023-02-19T19:02:59.837Z,98296.32
2023-02-19T19:06:06.377Z,98296.39
2023-02-19T19:09:17.801Z,98293.67
2023-02-19T19:12:30.342Z,98296.98
2023-02-19T19:15:44.858Z,98299.46
2023-02-19T19:18:52.818Z,98299.93
2023-02-19T19:21:57.010Z,98310.04
2023-02-19T19:25:06.257Z,98309.36
2023-02-19T19:28:23.957Z,98316.13
2023-02-19T19:31:39.698Z,98326.39
2023-02-19T19:34:52.184Z,98332.52
2023-02-19T19:37:59.231Z,98345.20
2023-02-19T19:41:06.537Z,98355.50
2023-02-19T19:44:13.879Z,98357.22
2023-02-19T19:47:24.904Z,98358.74
2023-02-19T19:50:32.190Z,98361.48
2023-02-19T19:53:47.710Z,98366.36
2023-02-19T19:56:56.019Z,98367.94
2023-02-19T20:00:09.451Z,98377.09
2023-02-19T20:03:19.580Z,98384.46
2023-02-19T20:06:30.934Z,98388.08
2023-02-19T20:09:36.480Z,98384.49
2023-02-19T20:12:43.250Z,98386.73
2023-02-19T20:15:48.686Z,98384.30
2023-02-19T20:18:51.772Z,98393.90
2023-02-19T20:22:10.422Z,98393.20
2023-02-19T20:25:13.820Z,98400.47
2023-02-19T20:28:19.487Z,98404.45
2023-02-19T20:31:34.679Z,98400.70
2023-02-19T20:34:40.213Z,98406.46
2023-02-19T20:37:43.800Z,98418.30
2023-02-19T20:40:46.071Z,98420.10
2023-02-19T20:43:49.873Z,98421.19
2023-02-19T20:46:53.111Z,98424.39
2023-02-19T20:49:58.296Z,98434.27
2023-02-19T20:53:03.725Z,98437.73
2023-02-19T20:56:09.178Z,98433.34
2023-02-19T20:59:14.671Z,98440.77
2023-02-19T21:02:21.409Z,98437.77
2023-02-19T21:05:24.895Z,98440.07
2023-02-19T21:08:28.984Z,98452.30
2023-02-19T21:11:32.110Z,98449.09
2023-02-19T21:14:36.748Z,98450.04
2023-02-19T21:17:39.190Z,98455.02
2023-02-19T21:20:42.720Z,98458.77
2023-02-19T21:23:45.647Z,98470.52
2023-02-19T21:26:52.549Z,98462.13
2023-02-19T21:29:54.765Z,98472.33
2023-02-19T21:33:01.234Z,98474.48
2023-02-19T21:36:05.911Z,98475.30
2023-02-19T21:39:10.184Z,98479.33
2023-02-19T21:42:14.798Z,98477.14
2023-02-19T21:45:19.448Z,98480.86
2023-02-19T21:48:24.850Z,98483.13
2023-02-19T21:51:31.214Z,98493.50
2023-02-19T21:54:34.670Z,98486.06
2023-02-19T21:57:38.068Z,98489.86
2023-02-19T22:00:40.146Z,98496.23
2023-02-19T22:03:42.566Z,98499.91
2023-02-19T22:06:45.912Z,98498.42
2023-02-19T22:09:59.324Z,98498.49
2023-02-19T22:13:02.799Z,98495.19
2023-02-19T22:16:10.103Z,98506.06
2023-02-19T22:19:14.818Z,98505.03
2023-02-19T22:22:20.106Z,98504.80
2023-02-19T22:25:22.987Z,98508.27
2023-02-19T22:28:26.086Z,98503.21
2023-02-19T22:31:28.196Z,98513.33
2023-02-19T22:34:37.333Z,98513.81
2023-02-19T22:37:40.574Z,98513.88
2023-02-19T22:40:43.268Z,98515.89
2023-02-19T22:43:45.728Z,98518.11
2023-02-19T22:46:53.012Z,98521.71
2023-02-19T22:54:48.049Z,98515.27
2023-02-19T22:57:50.022Z,98512.96
2023-02-19T23:00:56.111Z,98514.23
2023-02-19T23:04:01.504Z,98524.90
2023-02-19T23:07:06.229Z,98528.69
2023-02-19T23:10:08.891Z,98526.48
2023-02-19T23:13:16.649Z,98536.77
2023-02-19T23:16:19.572Z,98537.96
2023-02-19T23:19:21.862Z,98537.25
2023-02-19T23:22:24.282Z,98532.48
2023-02-19T23:25:26.667Z,98533.36
2023-02-19T23:28:32.587Z,98536.98
2023-02-19T23:31:36.495Z,98543.11
2023-02-19T23:34:40.230Z,98539.74
2023-02-19T23:37:43.089Z,98544.14
2023-02-19T23:40:45.080Z,98548.75
2023-02-19T23:43:49.928Z,98543.02
2023-02-19T23:46:52.769Z,98552.28
2023-02-19T23:49:54.871Z,98553.79
2023-02-19T23:52:58.735Z,98546.51
2023-02-19T23:56:01.569Z,98557.67
2023-02-19T23:59:03.746Z,98548.52
